CRW2 weather

Redwater (Heliworks) Heliport
Alberta, Canada

Public forecast

Using degrees Celsius for public forecast. Weather courtesy of forecast.io.

Closest aviation weather report (METAR) to Redwater (Heliworks) Heliport

Closest report is Edmonton (CFB Namao) Heliport, 20.0 nm (37.0 km) SW. Retrieved 2020/08/05 12:00 UTC (33 minutes ago):

CYED 051200Z AUTO 00000KT 9SM CLR 12/11 A2995 RMK SLP146

Closest aviation forecast (TAF) to Redwater (Heliworks) Heliport

Closest forecast is Edmonton (CFB Namao) Heliport, 20.0 nm (37.0 km) SW. Retrieved 2020/08/05 12:33 UTC (0 seconds ago):

TAF CYED 051130Z 0512/0524 VRB03KT P6SM FEW240 PROB30 0512/0513 2SM BR FM052000 19008KT P6SM FEW040 FEW240 RMK FCST BASED ON AUTO OBS 051200-051400Z NXT FCST BY 051800Z